Time;durP1;ratioP1;P1;durP2;ratioP2;P2;SDS_P1;SDS_P2;PMS_P1;PMS_P2;Temp;Humidity;BMP_temperature;BMP_pressure;BME280_temperature;BME280_humidity;BME280_pressure;Samples;Min_cycle;Max_cycle;Signal;HPM_P1;HPM_P2
2023/01/15 00:01:42;;;;;;;38.33;19.83;;;;;;;6.50;100.00;100696.50;5029566;28;20478;-31
2023/01/15 00:04:07;;;;;;;39.97;17.52;;;;;;;6.32;100.00;100683.53;5028090;28;20041;-30
2023/01/15 00:06:38;;;;;;;43.35;18.40;;;;;;;6.51;100.00;100697.31;5029353;28;20025;-32
2023/01/15 00:09:04;;;;;;;47.13;21.35;;;;;;;6.26;100.00;100700.13;5029696;28;20041;-29
2023/01/15 00:11:30;;;;;;;65.07;29.27;;;;;;;6.40;100.00;100694.06;5029573;28;20112;-29
2023/01/15 00:13:55;;;;;;;67.35;27.50;;;;;;;6.27;100.00;100675.25;5028130;28;20124;-29
2023/01/15 00:16:23;;;;;;;41.60;18.35;;;;;;;6.29;100.00;100683.84;5029254;28;20493;-28
2023/01/15 00:18:53;;;;;;;32.35;15.35;;;;;;;6.37;100.00;100697.06;5029218;28;20025;-28
2023/01/15 00:21:20;;;;;;;33.40;16.67;;;;;;;6.26;100.00;100700.13;5029496;28;20025;-28
2023/01/15 00:29:16;;;;;;;28.27;12.40;;;;;;;6.47;100.00;100691.53;5029352;28;20072;-28
2023/01/15 00:31:43;;;;;;;27.70;13.68;;;;;;;6.56;100.00;100689.63;5029455;28;20021;-28
2023/01/15 00:34:08;;;;;;;28.08;13.23;;;;;;;6.40;100.00;100702.00;5028980;28;20033;-27
2023/01/15 00:36:36;;;;;;;42.97;27.52;;;;;;;6.54;100.00;100703.09;5029331;28;20039;-28
2023/01/15 00:39:02;;;;;;;30.83;18.63;;;;;;;6.43;100.00;100706.94;5029154;28;20033;-29
2023/01/15 00:41:28;;;;;;;32.55;16.98;;;;;;;6.38;100.00;100711.97;5027821;28;20038;-27
2023/01/15 00:43:54;;;;;;;26.52;12.88;;;;;;;6.24;100.00;100707.41;5028890;28;20060;-27
2023/01/15 00:46:19;;;;;;;29.35;13.20;;;;;;;6.29;100.00;100699.75;5029114;28;20468;-29
2023/01/15 00:48:45;;;;;;;29.70;15.13;;;;;;;6.12;100.00;100682.31;5027725;28;20079;-31
2023/01/15 00:51:10;;;;;;;59.22;27.48;;;;;;;6.27;100.00;100701.75;5031286;28;20486;-29
2023/01/15 00:53:35;;;;;;;30.08;15.68;;;;;;;6.46;100.00;100689.91;5033227;28;20025;-29
2023/01/15 00:56:01;;;;;;;35.28;20.30;;;;;;;6.34;100.00;100691.31;5033007;28;20026;-28
2023/01/15 00:58:26;;;;;;;31.20;17.02;;;;;;;6.30;100.00;100690.81;5032838;28;20021;-30
2023/01/15 01:00:54;;;;;;;26.73;15.20;;;;;;;6.23;100.00;100671.31;5033206;28;20064;-29
2023/01/15 01:03:20;;;;;;;27.30;14.60;;;;;;;6.17;100.00;100685.25;5033071;28;20111;-32
2023/01/15 01:05:46;;;;;;;34.83;20.30;;;;;;;6.19;100.00;100684.09;5031647;28;20479;-27
2023/01/15 01:08:12;;;;;;;35.83;18.90;;;;;;;6.15;100.00;100692.56;5032955;28;20026;-27
2023/01/15 01:10:38;;;;;;;30.63;15.50;;;;;;;6.18;100.00;100689.56;5032889;28;20120;-27
2023/01/15 01:13:03;;;;;;;35.97;22.60;;;;;;;6.13;100.00;100690.09;5032453;28;20030;-27
2023/01/15 01:15:28;;;;;;;33.63;18.17;;;;;;;6.30;100.00;100688.16;5033056;28;20108;-30
2023/01/15 01:17:54;;;;;;;26.80;12.98;;;;;;;6.28;100.00;100679.56;5033037;28;20029;-27
2023/01/15 01:20:19;;;;;;;28.48;13.35;;;;;;;6.07;100.00;100647.59;5032555;28;20037;-30
2023/01/15 01:22:47;;;;;;;28.90;13.77;;;;;;;6.25;100.00;100685.22;5032652;28;20065;-30
2023/01/15 01:25:13;;;;;;;24.98;13.32;;;;;;;6.15;100.00;100681.97;5032579;28;20124;-28
2023/01/15 01:27:38;;;;;;;27.13;12.43;;;;;;;6.16;100.00;100676.50;5031170;28;20132;-27
2023/01/15 01:30:04;;;;;;;34.33;18.10;;;;;;;5.90;100.00;100662.72;5032349;28;20500;-29
2023/01/15 01:32:29;;;;;;;34.15;17.45;;;;;;;6.05;100.00;100668.97;5032557;28;20052;-30
2023/01/15 01:34:55;;;;;;;24.73;11.85;;;;;;;6.20;100.00;100687.56;5031194;28;20025;-29
2023/01/15 01:37:20;;;;;;;34.85;19.52;;;;;;;6.02;100.00;100672.75;5032487;28;20037;-27
2023/01/15 01:39:46;;;;;;;36.22;21.13;;;;;;;6.19;100.00;100685.91;5032171;28;20549;-27
2023/01/15 01:42:16;;;;;;;35.63;17.88;;;;;;;6.15;100.00;100682.81;5030715;28;20037;-28
2023/01/15 01:44:42;;;;;;;27.33;14.20;;;;;;;6.21;100.00;100686.56;5031056;28;20099;-31
2023/01/15 01:47:21;;;;;;;27.42;13.43;;;;;;;6.12;100.00;100687.63;5032046;28;20476;-29
2023/01/15 01:49:50;;;;;;;23.92;11.82;;;;;;;6.19;100.00;100688.56;5030897;28;20116;-32
2023/01/15 01:52:21;;;;;;;25.52;11.75;;;;;;;5.87;100.00;100663.91;5032125;28;20029;-29
2023/01/15 01:54:48;;;;;;;25.35;12.15;;;;;;;5.95;100.00;100669.19;5031891;28;20029;-29
2023/01/15 01:57:15;;;;;;;22.52;11.20;;;;;;;6.13;100.00;100683.97;5031895;28;20484;-28
2023/01/15 01:59:42;;;;;;;129.07;57.70;;;;;;;5.93;100.00;100683.56;5032038;28;20087;-27
2023/01/15 02:02:07;;;;;;;58.13;30.60;;;;;;;6.08;100.00;100687.13;5030910;28;20072;-30
2023/01/15 02:04:34;;;;;;;43.50;21.88;;;;;;;6.09;100.00;100693.25;5031976;28;20126;-32
2023/01/15 02:07:01;;;;;;;77.13;39.80;;;;;;;5.96;100.00;100684.03;5030521;28;20053;-27
2023/01/15 02:09:26;;;;;;;52.70;31.02;;;;;;;6.09;100.00;100687.94;5031584;28;20033;-27
2023/01/15 02:11:59;;;;;;;43.75;24.58;;;;;;;5.89;100.00;100680.44;5031976;28;20439;-28
2023/01/15 02:14:37;;;;;;;47.40;25.98;;;;;;;6.13;100.00;100699.84;5031786;28;20124;-31
2023/01/15 02:17:16;;;;;;;80.57;40.88;;;;;;;5.92;100.00;100672.13;5031711;28;20033;-30
2023/01/15 02:20:17;;;;;;;349.83;144.52;;;;;;;6.31;100.00;100695.09;5031574;28;20036;-27
2023/01/15 02:23:09;;;;;;;720.55;310.15;;;;;;;6.10;100.00;100694.91;5029985;28;20131;-32
2023/01/15 02:25:44;;;;;;;85.15;41.08;;;;;;;6.37;100.00;100694.41;5029999;28;20045;-27
2023/01/15 02:28:33;;;;;;;219.10;113.50;;;;;;;5.97;100.00;100696.31;5029880;28;20044;-26
2023/01/15 02:31:10;;;;;;;154.63;94.05;;;;;;;5.80;100.00;100681.44;5031462;28;20049;-28
2023/01/15 02:33:42;;;;;;;145.10;83.57;;;;;;;5.95;100.00;100671.81;5031274;28;20033;-27
2023/01/15 02:36:11;;;;;;;174.30;91.30;;;;;;;6.02;100.00;100679.88;5031232;28;20029;-29
2023/01/15 02:38:44;;;;;;;136.93;71.78;;;;;;;5.87;100.00;100676.31;5031222;28;20038;-27
2023/01/15 02:41:16;;;;;;;213.13;97.00;;;;;;;5.81;100.00;100670.69;5031547;28;20041;-31
2023/01/15 02:43:46;;;;;;;62.95;35.65;;;;;;;5.80;100.00;100670.88;5031221;28;20033;-29
2023/01/15 02:46:15;;;;;;;45.00;27.08;;;;;;;5.92;100.00;100682.72;5031114;28;20554;-30
2023/01/15 02:48:45;;;;;;;70.80;32.90;;;;;;;6.06;100.00;100677.72;5029544;28;20524;-27
2023/01/15 02:51:17;;;;;;;50.85;21.23;;;;;;;5.94;100.00;100659.53;5031114;28;20148;-28
2023/01/15 02:53:47;;;;;;;111.90;43.63;;;;;;;5.86;100.00;100678.13;5031052;28;20061;-28
2023/01/15 02:56:17;;;;;;;140.93;51.50;;;;;;;5.95;100.00;100677.13;5030816;28;20456;-27
2023/01/15 02:58:44;;;;;;;222.45;94.45;;;;;;;5.78;100.00;100673.72;5029397;28;20053;-27
2023/01/15 03:01:21;;;;;;;68.25;29.42;;;;;;;5.82;100.00;100660.94;5029153;28;20029;-30
2023/01/15 03:03:53;;;;;;;105.40;38.92;;;;;;;5.96;100.00;100675.28;5029553;28;20474;-28
2023/01/15 03:06:31;;;;;;;105.57;42.22;;;;;;;5.77;100.00;100648.22;5030734;28;20116;-28
2023/01/15 03:08:56;;;;;;;;;;;;;;;5.92;100.00;100676.59;5029787;28;20052;-30
2023/01/15 03:11:22;;;;;;;45.63;21.13;;;;;;;5.83;100.00;100662.59;5030706;28;19913;-29
2023/01/15 03:14:12;;;;;;;43.40;19.20;;;;;;;5.84;100.00;100665.06;5030058;28;20029;-28
2023/01/15 03:16:46;;;;;;;22.13;10.10;;;;;;;5.74;100.00;100666.25;5030692;28;20025;-26
2023/01/15 03:19:35;;;;;;;23.90;10.32;;;;;;;5.54;100.00;100653.47;5030840;28;20040;-27
2023/01/15 03:22:20;;;;;;;22.83;10.65;;;;;;;5.67;100.00;100668.78;5028709;28;20025;-31
2023/01/15 03:24:53;;;;;;;30.58;11.82;;;;;;;5.60;100.00;100655.41;5030630;28;20034;-27
2023/01/15 03:27:20;;;;;;;36.47;14.63;;;;;;;5.73;100.00;100672.56;5030355;28;20060;-31
2023/01/15 03:29:49;;;;;;;186.63;58.92;;;;;;;5.86;100.00;100659.59;5030339;28;20029;-28
2023/01/15 03:32:17;;;;;;;38.95;16.75;;;;;;;5.83;100.00;100654.66;5028349;28;20044;-27
2023/01/15 03:34:44;;;;;;;79.97;32.30;;;;;;;5.83;100.00;100667.88;5028730;28;20115;-28
2023/01/15 03:37:10;;;;;;;35.60;16.85;;;;;;;5.82;100.00;100656.47;5029834;28;20468;-27
2023/01/15 03:39:35;;;;;;;23.42;10.88;;;;;;;6.01;100.00;100665.03;5030653;28;20021;-30
2023/01/15 03:42:13;;;;;;;24.98;14.00;;;;;;;6.06;100.00;100673.25;5029836;28;20109;-28
2023/01/15 03:44:44;;;;;;;21.45;11.68;;;;;;;5.87;100.00;100669.19;5030358;28;20044;-27
2023/01/15 03:47:28;;;;;;;23.55;10.05;;;;;;;6.02;100.00;100667.47;5029656;28;20032;-31
2023/01/15 03:50:08;;;;;;;23.20;11.05;;;;;;;5.97;100.00;100659.25;5030118;28;20277;-27
2023/01/15 03:52:45;;;;;;;19.65;9.82;;;;;;;5.89;100.00;100667.19;5030082;28;20025;-26
2023/01/15 03:55:22;;;;;;;23.50;10.45;;;;;;;5.77;100.00;100650.06;5029764;28;20048;-30
2023/01/15 03:57:50;;;;;;;20.75;10.05;;;;;;;5.76;100.00;100656.31;5029973;28;20029;-28
2023/01/15 04:00:26;;;;;;;20.08;10.23;;;;;;;5.63;100.00;100644.47;5028369;28;20032;-29
2023/01/15 04:02:54;;;;;;;21.75;10.48;;;;;;;5.77;100.00;100650.88;5028496;28;20041;-28
2023/01/15 04:05:21;;;;;;;24.52;11.00;;;;;;;5.81;100.00;100659.28;5029687;28;20026;-27
2023/01/15 04:07:48;;;;;;;20.88;9.75;;;;;;;5.82;100.00;100660.94;5029471;28;20508;-27
2023/01/15 04:10:14;;;;;;;21.73;10.25;;;;;;;5.82;100.00;100663.56;5027818;28;20120;-26
2023/01/15 04:12:39;;;;;;;19.77;10.80;;;;;;;5.71;100.00;100664.78;5029556;28;20516;-26
2023/01/15 04:15:05;;;;;;;20.45;9.90;;;;;;;5.81;100.00;100665.41;5028275;28;20034;-29
2023/01/15 04:17:30;;;;;;;19.65;11.02;;;;;;;5.83;100.00;100673.19;5029765;28;20033;-29
2023/01/15 04:19:56;;;;;;;24.92;11.18;;;;;;;5.68;100.00;100669.59;5029506;28;20124;-29
2023/01/15 04:22:21;;;;;;;23.88;11.18;;;;;;;5.80;100.00;100679.66;5029057;28;20037;-28
2023/01/15 04:24:47;;;;;;;21.75;10.38;;;;;;;5.88;100.00;100686.69;5027546;28;20029;-30
2023/01/15 04:27:12;;;;;;;26.95;13.60;;;;;;;5.93;100.00;100683.56;5027812;28;20425;-27
2023/01/15 04:29:37;;;;;;;23.17;12.20;;;;;;;5.79;100.00;100661.28;5029558;28;20033;-27
2023/01/15 04:32:03;;;;;;;23.13;11.43;;;;;;;5.97;100.00;100679.59;5029291;28;20033;-28
2023/01/15 04:34:29;;;;;;;25.08;10.85;;;;;;;5.90;100.00;100682.06;5029191;28;20025;-28
2023/01/15 04:36:55;;;;;;;26.40;11.88;;;;;;;6.01;100.00;100689.66;5029278;28;20033;-30
2023/01/15 04:39:22;;;;;;;24.10;10.95;;;;;;;6.09;100.00;100685.31;5027657;28;20025;-28
2023/01/15 04:44:33;;;;;;;26.75;12.18;;;;;;;6.26;100.00;100700.13;5029256;28;20044;-27
2023/01/15 04:46:59;;;;;;;24.35;12.23;;;;;;;6.02;100.00;100704.53;5029110;28;20030;-32
2023/01/15 04:49:24;;;;;;;24.52;14.18;;;;;;;5.91;100.00;100702.25;5027685;28;20037;-28
2023/01/15 04:51:50;;;;;;;24.00;12.18;;;;;;;5.75;100.00;100681.16;5028917;28;20064;-29
2023/01/15 04:54:16;;;;;;;24.05;14.18;;;;;;;5.96;100.00;100699.94;5027752;28;20033;-27
2023/01/15 04:56:49;;;;;;;28.92;18.15;;;;;;;5.85;100.00;100702.94;5027628;28;20402;-27
2023/01/15 04:59:15;;;;;;;30.83;16.73;;;;;;;5.98;100.00;100708.53;5028963;28;20282;-27
2023/01/15 05:01:41;;;;;;;25.85;13.65;;;;;;;6.00;100.00;100709.19;5028900;28;20037;-28
2023/01/15 05:04:07;;;;;;;57.42;41.10;;;;;;;6.12;100.00;100708.81;5028733;28;20410;-27
2023/01/15 05:06:32;;;;;;;41.17;24.15;;;;;;;6.01;100.00;100708.19;5028740;28;20091;-28
2023/01/15 05:08:59;;;;;;;29.27;17.33;;;;;;;5.81;100.00;100704.28;5029027;28;20029;-28
2023/01/15 05:11:26;;;;;;;26.45;13.80;;;;;;;5.78;100.00;100712.56;5028976;28;20462;-28
2023/01/15 05:13:52;;;;;;;81.47;42.67;;;;;;;5.70;100.00;100712.59;5027636;28;20489;-27
2023/01/15 05:16:23;;;;;;;88.50;45.47;;;;;;;5.89;100.00;100709.53;5028758;28;20060;-28
2023/01/15 05:18:50;;;;;;;69.28;38.30;;;;;;;5.82;100.00;100708.56;5028688;28;20037;-27
2023/01/15 05:21:21;;;;;;;113.25;61.88;;;;;;;5.89;100.00;100720.13;5027517;28;20119;-31
2023/01/15 05:23:48;;;;;;;118.65;65.75;;;;;;;5.83;100.00;100731.41;5029038;28;20032;-30
2023/01/15 05:26:14;;;;;;;40.85;25.85;;;;;;;5.77;100.00;100717.03;5027063;28;20096;-27
2023/01/15 05:28:39;;;;;;;38.60;24.90;;;;;;;5.81;100.00;100722.81;5028654;28;20091;-27
2023/01/15 05:31:16;;;;;;;34.83;23.55;;;;;;;5.87;100.00;100700.13;5028800;28;20035;-28
2023/01/15 05:33:45;;;;;;;32.67;21.67;;;;;;;5.87;100.00;100724.78;5029015;28;20029;-29
2023/01/15 05:36:13;;;;;;;28.27;15.02;;;;;;;5.95;100.00;100723.97;5027348;28;20029;-29
2023/01/15 05:38:39;;;;;;;;;;;;;;;5.96;100.00;100723.75;5030604;28;20111;-27
2023/01/15 05:41:47;;;;;;;29.13;17.17;;;;;;;5.92;100.00;100729.53;5032332;28;19913;-28
2023/01/15 05:43:53;;;;;;;30.70;19.58;;;;;;;5.79;100.00;100708.94;5031918;28;20468;-27
2023/01/15 05:46:18;;;;;;;68.97;40.92;;;;;;;5.67;100.00;100705.81;5030893;28;20037;-28
2023/01/15 05:48:43;;;;;;;73.25;48.97;;;;;;;5.73;100.00;100725.50;5032084;28;20029;-27
2023/01/15 05:51:09;;;;;;;92.72;57.55;;;;;;;5.64;100.00;100709.66;5032179;28;20109;-31
2023/01/15 05:53:34;;;;;;;35.10;22.77;;;;;;;5.65;100.00;100713.09;5032131;28;20033;-28
2023/01/15 05:56:00;;;;;;;27.38;17.00;;;;;;;5.82;100.00;100716.50;5020002;28;20059;-29
2023/01/15 05:58:26;;;;;;;29.23;18.65;;;;;;;5.72;100.00;100721.19;5040642;28;20041;-29
2023/01/15 06:00:51;;;;;;;20.95;12.52;;;;;;;5.80;100.00;100737.03;5051817;28;20044;-29
2023/01/15 06:03:16;;;;;;;24.20;12.73;;;;;;;5.75;100.00;100719.03;5052027;28;20477;-29
2023/01/15 06:05:42;;;;;;;24.50;15.77;;;;;;;5.86;100.00;100720.47;5043387;28;20512;-29
2023/01/15 06:08:07;;;;;;;22.23;12.32;;;;;;;5.93;100.00;100726.75;5035418;28;20041;-30
2023/01/15 06:10:33;;;;;;;24.17;13.38;;;;;;;6.04;100.00;100729.03;5030345;28;20026;-32
2023/01/15 06:12:58;;;;;;;27.88;15.75;;;;;;;5.96;100.00;100734.34;5031483;28;20021;-29
2023/01/15 06:15:23;;;;;;;46.85;21.17;;;;;;;5.94;100.00;100723.06;5034764;28;20115;-28
2023/01/15 06:17:49;;;;;;;45.05;23.08;;;;;;;5.95;100.00;100724.78;5038452;28;20488;-30
2023/01/15 06:20:15;;;;;;;43.58;24.27;;;;;;;5.91;100.00;100728.72;5031374;28;20025;-29
2023/01/15 06:22:40;;;;;;;41.78;23.90;;;;;;;5.83;100.00;100729.59;5031666;28;20037;-29
2023/01/15 06:25:06;;;;;;;37.25;19.90;;;;;;;5.83;100.00;100723.47;5031496;28;20029;-28
2023/01/15 06:27:32;;;;;;;31.42;17.80;;;;;;;5.97;100.00;100722.78;5030892;28;20057;-27
2023/01/15 06:29:57;;;;;;;31.13;16.88;;;;;;;5.72;100.00;100702.66;5030429;28;20049;-29
2023/01/15 06:32:24;;;;;;;33.72;18.10;;;;;;;5.64;100.00;100733.47;5030711;28;20030;-32
2023/01/15 06:34:49;;;;;;;27.48;14.48;;;;;;;5.51;100.00;100716.47;5030116;28;20037;-31
2023/01/15 06:37:15;;;;;;;29.00;17.27;;;;;;;5.41;100.00;100714.00;5031394;28;20032;-29
2023/01/15 06:39:40;;;;;;;28.38;14.32;;;;;;;5.44;100.00;100714.50;5031363;28;20513;-29
2023/01/15 06:47:35;;;;;;;34.78;18.45;;;;;;;5.56;100.00;100730.84;5030626;28;20087;-29
2023/01/15 06:50:01;;;;;;;29.52;15.27;;;;;;;5.63;100.00;100731.78;5029130;28;20465;-29
2023/01/15 06:52:28;;;;;;;62.28;32.28;;;;;;;5.52;100.00;100734.81;5030634;28;20033;-29
2023/01/15 06:54:54;;;;;;;65.55;35.70;;;;;;;5.57;100.00;100736.94;5029399;28;20041;-29
2023/01/15 06:57:20;;;;;;;59.42;33.83;;;;;;;5.44;100.00;100734.84;5030926;28;20033;-28
2023/01/15 06:59:47;;;;;;;69.53;39.15;;;;;;;5.66;100.00;100735.09;5030721;28;20469;-30
2023/01/15 07:02:12;;;;;;;45.15;22.33;;;;;;;5.50;100.00;100744.75;5030563;28;20029;-29
2023/01/15 07:04:38;;;;;;;132.93;55.60;;;;;;;5.49;100.00;100740.44;5030340;28;20025;-31
2023/01/15 07:07:04;;;;;;;90.35;44.25;;;;;;;5.51;100.00;100738.44;5030484;28;20025;-27
2023/01/15 07:09:29;;;;;;;124.10;66.55;;;;;;;5.45;100.00;100731.19;5030671;28;20067;-28
2023/01/15 07:11:55;;;;;;;137.85;69.97;;;;;;;5.62;100.00;100742.56;5030438;28;20048;-27
2023/01/15 07:14:23;;;;;;;56.58;29.27;;;;;;;5.46;100.00;100722.25;5031187;28;20040;-28
2023/01/15 07:16:50;;;;;;;99.82;51.35;;;;;;;5.64;100.00;100744.03;5041847;28;20021;-30
2023/01/15 07:19:16;;;;;;;236.45;108.63;;;;;;;5.68;100.00;100743.69;5048735;28;20132;-29
2023/01/15 07:21:42;;;;;;;76.65;44.72;;;;;;;5.68;100.00;100727.81;5050221;28;20025;-29
2023/01/15 07:24:09;;;;;;;102.40;55.13;;;;;;;5.91;100.00;100739.31;5050148;28;20097;-30
2023/01/15 07:26:35;;;;;;;57.40;32.17;;;;;;;5.96;100.00;100738.81;5048563;28;20428;-30
2023/01/15 07:29:01;;;;;;;128.35;60.80;;;;;;;6.04;100.00;100720.25;5049889;28;20055;-29
2023/01/15 07:31:26;;;;;;;200.93;93.78;;;;;;;6.02;100.00;100732.84;5050052;28;20477;-33
2023/01/15 07:33:51;;;;;;;45.40;26.23;;;;;;;5.99;100.00;100749.91;5049901;28;20024;-29
2023/01/15 07:36:17;;;;;;;77.63;45.25;;;;;;;5.94;100.00;100744.25;5032872;28;20036;-30
2023/01/15 07:38:42;;;;;;;35.05;19.55;;;;;;;5.80;100.00;100755.56;5029904;28;20032;-30
2023/01/15 07:49:46;;;;;;;41.72;21.23;;;;;;;5.90;100.00;100753.53;5046965;28;20036;-28
2023/01/15 07:52:16;;;;;;;36.10;17.55;;;;;;;5.78;100.00;100739.03;5030328;28;20554;-28
2023/01/15 07:54:43;;;;;;;40.38;20.90;;;;;;;6.04;100.00;100736.97;5038047;28;20067;-30
2023/01/15 07:57:10;;;;;;;52.42;26.55;;;;;;;6.22;100.00;100755.25;5033348;28;20032;-30
2023/01/15 07:59:35;;;;;;;33.80;17.10;;;;;;;6.06;100.00;100752.69;5048018;28;20033;-33
2023/01/15 08:02:00;;;;;;;44.72;23.90;;;;;;;6.22;100.00;100747.31;5049201;28;20444;-29
2023/01/15 08:04:26;;;;;;;31.52;16.40;;;;;;;6.12;100.00;100735.28;5045204;28;20051;-29
2023/01/15 08:06:51;;;;;;;32.67;16.45;;;;;;;6.14;100.00;100760.59;5037085;28;20025;-29
2023/01/15 08:09:17;;;;;;;31.73;16.17;;;;;;;6.02;100.00;100741.59;5029609;28;20033;-30
2023/01/15 08:17:10;;;;;;;34.75;15.90;;;;;;;6.23;100.00;100759.56;5029597;28;20107;-29
2023/01/15 08:19:35;;;;;;;35.78;17.42;;;;;;;6.16;100.00;100742.72;5028153;28;20493;-28
2023/01/15 08:22:01;;;;;;;33.70;15.75;;;;;;;6.20;100.00;100764.38;5029219;28;20029;-28
2023/01/15 08:24:27;;;;;;;75.28;37.08;;;;;;;6.16;100.00;100781.63;5031279;28;20104;-29
2023/01/15 08:26:53;;;;;;;118.07;59.88;;;;;;;5.82;100.00;100753.56;5048901;28;20052;-32
2023/01/15 08:29:19;;;;;;;37.90;19.05;;;;;;;6.14;100.00;100775.66;5049264;28;20055;-28
2023/01/15 08:31:45;;;;;;;34.85;17.15;;;;;;;6.10;100.00;100784.94;5046809;28;20059;-31
2023/01/15 08:34:10;;;;;;;44.33;24.60;;;;;;;6.08;100.00;100776.34;5033448;28;20478;-29
2023/01/15 08:36:35;;;;;;;32.17;20.85;;;;;;;6.02;100.00;100773.38;5038311;28;20025;-33
2023/01/15 08:39:02;;;;;;;31.25;18.27;;;;;;;5.90;100.00;100758.84;5039621;28;20025;-32
2023/01/15 08:41:27;;;;;;;28.13;19.42;;;;;;;6.08;100.00;100773.69;5038121;28;20037;-29
2023/01/15 08:43:53;;;;;;;31.23;20.90;;;;;;;5.76;100.00;100762.19;5039001;28;20029;-28
2023/01/15 08:46:18;;;;;;;30.55;20.40;;;;;;;5.95;100.00;100776.91;5039256;28;20029;-28
2023/01/15 08:48:43;;;;;;;37.95;20.00;;;;;;;5.80;100.00;100752.91;5037401;28;20029;-30
2023/01/15 08:51:11;;;;;;;46.42;29.70;;;;;;;6.12;100.00;100764.41;5039102;28;20051;-29
2023/01/15 08:53:37;;;;;;;44.22;26.48;;;;;;;6.27;100.00;100775.09;5037091;28;20434;-29
2023/01/15 08:56:03;;;;;;;53.55;31.63;;;;;;;6.19;100.00;100778.59;5037475;28;20471;-28
2023/01/15 08:58:32;;;;;;;57.72;35.53;;;;;;;6.17;100.00;100770.00;5039348;28;20167;-29
2023/01/15 09:01:09;;;;;;;33.72;20.48;;;;;;;6.50;100.00;100765.38;5039235;28;20036;-31
2023/01/15 09:03:35;;;;;;;38.38;22.73;;;;;;;6.34;100.00;100763.66;5038552;28;20112;-30
2023/01/15 09:06:01;;;;;;;51.13;33.13;;;;;;;6.34;100.00;100763.66;5035769;28;20104;-30
2023/01/15 09:08:28;;;;;;;34.83;20.67;;;;;;;6.47;100.00;100764.91;5036091;28;20017;-29
2023/01/15 09:11:00;;;;;;;21.17;11.77;;;;;;;6.39;100.00;100758.63;5037866;28;20048;-29
2023/01/15 09:13:27;;;;;;;60.75;39.05;;;;;;;6.34;100.00;100755.69;5042069;28;20036;-29
2023/01/15 09:15:52;;;;;;;107.00;68.80;;;;;;;6.38;100.00;100751.69;5040298;28;20416;-29
2023/01/15 09:18:19;;;;;;;42.15;27.58;;;;;;;6.35;100.00;100752.03;5041728;28;20486;-28
2023/01/15 09:20:48;;;;;;;60.15;38.60;;;;;;;6.37;100.00;100741.28;5043220;28;20715;-30
2023/01/15 09:23:13;;;;;;;57.42;43.70;;;;;;;6.32;100.00;100725.91;5041684;28;20109;-29
2023/01/15 09:25:40;;;;;;;25.92;13.45;;;;;;;6.37;100.00;100728.84;5033791;28;20140;-28
2023/01/15 09:28:05;;;;;;;21.05;11.80;;;;;;;6.48;100.00;100742.69;5032321;28;20118;-28
2023/01/15 09:30:31;;;;;;;33.67;18.90;;;;;;;6.27;100.00;100722.94;5032578;28;20041;-31
2023/01/15 09:32:56;;;;;;;38.70;21.92;;;;;;;6.57;100.00;100737.16;5032241;28;20405;-29
2023/01/15 09:35:21;;;;;;;23.83;13.70;;;;;;;6.43;100.00;100732.63;5032307;28;20424;-28
2023/01/15 09:37:53;;;;;;;49.65;28.17;;;;;;;6.51;100.00;100713.19;5032292;28;20021;-28
2023/01/15 09:40:31;;;;;;;20.00;10.57;;;;;;;6.64;100.00;100729.34;5030898;28;20513;-32
2023/01/15 09:43:08;;;;;;;30.02;20.35;;;;;;;6.60;100.00;100722.75;5032231;28;20071;-28
2023/01/15 09:45:44;;;;;;;21.15;11.68;;;;;;;6.68;100.00;100720.06;5031967;28;20033;-31
2023/01/15 09:48:48;;;;;;;18.75;10.60;;;;;;;6.78;100.00;100715.34;5030583;28;20036;-29
2023/01/15 09:51:29;;;;;;;21.60;12.95;;;;;;;6.60;100.00;100718.28;5033209;28;20537;-30
2023/01/15 09:54:12;;;;;;;29.08;18.10;;;;;;;6.58;100.00;100717.63;5047494;28;20489;-28
2023/01/15 09:56:38;;;;;;;24.77;13.60;;;;;;;6.54;100.00;100720.78;5043445;28;20025;-28
2023/01/15 09:59:32;;;;;;;21.08;14.10;;;;;;;6.59;100.00;100715.78;5043253;28;20028;-30
2023/01/15 10:02:00;;;;;;;29.83;18.30;;;;;;;6.59;100.00;100689.28;5032068;28;20033;-30
2023/01/15 10:04:42;;;;;;;24.95;16.65;;;;;;;6.71;100.00;100698.47;5031975;28;20025;-30
2023/01/15 10:07:21;;;;;;;17.75;11.30;;;;;;;6.89;100.00;100713.25;5031947;28;20121;-31
2023/01/15 10:10:10;;;;;;;22.42;13.15;;;;;;;6.75;100.00;100675.91;5031561;28;20026;-32
2023/01/15 10:12:38;;;;;;;19.70;12.05;;;;;;;7.12;100.00;100689.34;5029994;28;20037;-30
2023/01/15 10:15:21;;;;;;;28.60;16.50;;;;;;;7.26;100.00;100695.69;5030315;28;20026;-31
2023/01/15 10:17:49;;;;;;;24.92;14.88;;;;;;;7.06;100.00;100667.00;5031624;28;20106;-29
2023/01/15 10:36:33;;;;;;;34.83;22.35;;;;;;;6.48;100.00;100636.69;5104739;27;20403;-32
2023/01/15 10:39:19;;;;;;;36.88;20.02;;;;;;;6.85;100.00;100630.59;5106907;28;20038;-29
2023/01/15 10:42:08;;;;;;;19.27;12.05;;;;;;;7.06;100.00;100650.28;5106561;28;20149;-30
2023/01/15 10:44:45;;;;;;;;;;;;;;;7.45;100.00;100650.00;5106409;28;20607;-30
2023/01/15 10:47:14;;;;;;;30.17;18.17;;;;;;;7.09;100.00;100637.50;5106647;28;19912;-29
2023/01/15 10:49:41;;;;;;;24.63;16.60;;;;;;;7.21;100.00;100622.78;5088120;28;20126;-30
2023/01/15 10:52:25;;;;;;;30.15;18.13;;;;;;;7.38;100.00;100633.19;5087876;28;20024;-30
2023/01/15 10:55:10;;;;;;;28.60;17.80;;;;;;;7.12;100.00;100631.81;5105945;28;20043;-30
2023/01/15 10:57:42;;;;;;;35.65;22.38;;;;;;;7.23;100.00;100633.16;5096709;28;20057;-30
2023/01/15 11:00:09;;;;;;;32.83;18.58;;;;;;;6.92;100.00;100588.25;5085941;28;20036;-29
2023/01/15 11:02:49;;;;;;;27.60;15.77;;;;;;;7.11;100.00;100611.59;5085336;28;20068;-30
2023/01/15 11:05:19;;;;;;;40.22;22.10;;;;;;;7.19;100.00;100592.94;5067170;28;20104;-32
2023/01/15 11:07:50;;;;;;;22.83;13.05;;;;;;;7.38;100.00;100585.44;5085233;28;20060;-30
2023/01/15 11:10:19;;;;;;;34.72;20.23;;;;;;;7.53;100.00;100596.84;5085588;28;20024;-29
2023/01/15 11:21:16;;;;;;;25.20;17.50;;;;;;;7.91;100.00;100571.94;5083646;28;20039;-30
2023/01/15 11:23:41;;;;;;;25.50;18.98;;;;;;;8.27;100.00;100587.78;5063774;28;20028;-29
2023/01/15 11:26:09;;;;;;;28.98;18.40;;;;;;;8.28;100.00;100572.69;5085058;28;20033;-33
2023/01/15 11:28:38;;;;;;;35.45;23.38;;;;;;;8.61;100.00;100541.09;5085465;28;20039;-29
2023/01/15 11:31:05;;;;;;;27.63;19.40;;;;;;;8.34;100.00;100575.41;5067094;28;20024;-30
2023/01/15 11:33:31;;;;;;;44.45;27.38;;;;;;;7.71;100.00;100556.63;5089018;28;20024;-28
2023/01/15 11:35:59;;;;;;;39.63;24.05;;;;;;;8.23;99.49;100570.59;5105093;28;20147;-28
2023/01/15 11:38:30;;;;;;;59.70;37.35;;;;;;;8.07;100.00;100566.38;5105471;28;20055;-31
2023/01/15 11:40:59;;;;;;;36.90;21.50;;;;;;;8.33;100.00;100543.69;5105297;28;20036;-30
2023/01/15 11:52:14;;;;;;;28.77;16.42;;;;;;;7.44;100.00;100536.94;5091437;28;20189;-29
2023/01/15 11:54:46;;;;;;;20.77;14.20;;;;;;;8.15;100.00;100537.03;5091481;28;20448;-32
2023/01/15 11:57:26;;;;;;;21.55;16.50;;;;;;;8.49;100.00;100548.75;5091460;28;20024;-27
2023/01/15 11:59:52;;;;;;;18.77;14.55;;;;;;;8.89;99.03;100543.72;5091201;28;20024;-30
2023/01/15 12:02:26;;;;;;;42.65;30.02;;;;;;;8.90;99.11;100553.31;5090865;28;20396;-29
2023/01/15 12:04:57;;;;;;;26.80;15.18;;;;;;;8.18;98.38;100535.81;5089030;28;20016;-30
2023/01/15 12:07:25;;;;;;;20.75;16.17;;;;;;;8.49;99.16;100532.81;5090782;28;20051;-29
2023/01/15 12:10:10;;;;;;;29.23;19.40;;;;;;;8.52;97.98;100537.75;5090638;28;20042;-31
2023/01/15 12:12:43;;;;;;;18.70;10.18;;;;;;;8.10;97.66;100518.16;5089713;28;20034;-29
2023/01/15 12:15:22;;;;;;;15.40;9.35;;;;;;;7.86;99.37;100537.97;5064675;28;20032;-29
2023/01/15 12:18:27;;;;;;;26.27;16.90;;;;;;;8.12;100.00;100536.59;5090837;28;20032;-28
2023/01/15 12:21:21;;;;;;;10.35;6.22;;;;;;;8.20;100.00;100533.78;5084914;28;20098;-29